Time;durP1;ratioP1;P1;durP2;ratioP2;P2;SDS_P1;SDS_P2;PMS_P1;PMS_P2;Temp;Humidity;BMP_temperature;BMP_pressure;BME280_temperature;BME280_humidity;BME280_pressure;Samples;Min_cycle;Max_cycle;Signal;HPM_P1;HPM_P2
2022/03/20 00:01:46;;;;;;;16.88;11.98;;;;;;;;;;5036871;28;20030;-74
2022/03/20 00:04:12;;;;;;;17.52;11.32;;;;;;;;;;5036179;28;20566;-74
2022/03/20 00:06:38;;;;;;;15.98;11.15;;;;;;;;;;5036721;28;20029;-75
2022/03/20 00:09:05;;;;;;;13.73;10.27;;;;;;;;;;5034789;28;20029;-74
2022/03/20 00:11:31;;;;;;;17.42;11.30;;;;;;;;;;5036264;28;20030;-75
2022/03/20 00:13:57;;;;;;;15.77;11.77;;;;;;;;;;5035111;28;20522;-75
2022/03/20 00:16:29;;;;;;;19.95;12.63;;;;;;;;;;5029228;28;20029;-75
2022/03/20 00:18:55;;;;;;;16.83;11.38;;;;;;;;;;5022617;28;20026;-75
2022/03/20 00:21:22;;;;;;;16.77;11.95;;;;;;;;;;5033441;28;20638;-75
2022/03/20 00:23:48;;;;;;;17.52;11.98;;;;;;;;;;5035721;28;20499;-75
2022/03/20 00:26:17;;;;;;;18.90;13.35;;;;;;;;;;5034802;28;20116;-75
2022/03/20 00:28:44;;;;;;;18.52;12.20;;;;;;;;;;5032613;28;20121;-75
2022/03/20 00:31:11;;;;;;;19.65;12.55;;;;;;;;;;5029068;28;20030;-75
2022/03/20 00:33:37;;;;;;;19.08;12.65;;;;;;;;;;5034299;28;20026;-75
2022/03/20 00:36:03;;;;;;;18.25;11.95;;;;;;;;;;5023154;28;20022;-74
2022/03/20 00:38:30;;;;;;;15.93;12.02;;;;;;;;;;5028747;28;20093;-74
2022/03/20 00:40:56;;;;;;;16.45;11.40;;;;;;;;;;5035275;28;20025;-75
2022/03/20 00:43:22;;;;;;;15.18;11.43;;;;;;;;;;5035487;28;20037;-75
2022/03/20 00:45:49;;;;;;;19.55;13.00;;;;;;;;;;5025607;28;20045;-75
2022/03/20 00:48:15;;;;;;;21.13;14.50;;;;;;;;;;5029593;28;20037;-75
2022/03/20 00:50:41;;;;;;;26.13;19.17;;;;;;;;;;5034860;28;20022;-75
2022/03/20 00:53:09;;;;;;;27.88;19.73;;;;;;;;;;5033209;28;20026;-75
2022/03/20 00:55:35;;;;;;;29.95;19.77;;;;;;;;;;5016202;28;20128;-75
2022/03/20 00:58:01;;;;;;;23.98;18.80;;;;;;;;;;5031723;28;20025;-75
2022/03/20 01:00:27;;;;;;;25.63;17.65;;;;;;;;;;5034245;28;20033;-74
2022/03/20 01:02:54;;;;;;;23.88;17.98;;;;;;;;;;5034837;28;20065;-74
2022/03/20 01:05:20;;;;;;;24.42;18.10;;;;;;;;;;5025483;28;20041;-73
2022/03/20 01:07:47;;;;;;;25.92;17.15;;;;;;;;;;5033858;28;20032;-74
2022/03/20 01:10:13;;;;;;;20.90;15.80;;;;;;;;;;5035118;28;20022;-74
2022/03/20 01:12:41;;;;;;;23.38;16.55;;;;;;;;;;5033873;28;20033;-75
2022/03/20 01:15:10;;;;;;;21.85;15.75;;;;;;;;;;5025599;28;20017;-75
2022/03/20 01:17:37;;;;;;;20.75;15.10;;;;;;;;;;5029014;28;20057;-75
2022/03/20 01:20:05;;;;;;;19.17;13.90;;;;;;;;;;5026821;28;20057;-74
2022/03/20 01:22:31;;;;;;;21.13;13.35;;;;;;;;;;5022651;28;20349;-75
2022/03/20 01:24:57;;;;;;;17.85;12.90;;;;;;;;;;5027483;28;20026;-75
2022/03/20 01:27:24;;;;;;;18.75;11.95;;;;;;;;;;5026764;28;20025;-75
2022/03/20 01:29:50;;;;;;;20.58;12.77;;;;;;;;;;5035621;28;20026;-74
2022/03/20 01:32:17;;;;;;;17.42;12.50;;;;;;;;;;5034908;28;20029;-75
2022/03/20 01:34:47;;;;;;;18.50;13.95;;;;;;;;;;5035064;28;20361;-75
2022/03/20 01:37:13;;;;;;;21.88;13.73;;;;;;;;;;5034363;28;20029;-75
2022/03/20 01:39:39;;;;;;;21.95;15.35;;;;;;;;;;5034146;28;20026;-76
2022/03/20 01:42:06;;;;;;;22.42;13.90;;;;;;;;;;5034664;28;20041;-75
2022/03/20 01:44:33;;;;;;;26.25;16.70;;;;;;;;;;5034913;28;20503;-75
2022/03/20 01:47:00;;;;;;;23.60;16.73;;;;;;;;;;5034780;28;20025;-75
2022/03/20 01:49:27;;;;;;;28.40;18.52;;;;;;;;;;5034761;28;20018;-75
2022/03/20 01:52:13;;;;;;;28.38;19.30;;;;;;;;;;5023339;28;20026;-76
2022/03/20 01:54:45;;;;;;;29.48;20.45;;;;;;;;;;5014952;28;20025;-76
2022/03/20 01:57:16;;;;;;;29.33;20.02;;;;;;;;;;5014806;28;20029;-76
2022/03/20 01:59:43;;;;;;;28.75;20.40;;;;;;;;;;5023807;28;20080;-76
2022/03/20 02:02:09;;;;;;;32.80;21.88;;;;;;;;;;5030657;28;20500;-76
2022/03/20 02:04:36;;;;;;;35.42;22.90;;;;;;;;;;5034168;28;20060;-76
2022/03/20 02:07:03;;;;;;;33.10;22.52;;;;;;;;;;5033415;28;20033;-76
2022/03/20 02:09:29;;;;;;;33.47;22.70;;;;;;;;;;5034322;28;20028;-75
2022/03/20 02:11:56;;;;;;;37.50;24.23;;;;;;;;;;5033890;28;20030;-75
2022/03/20 02:14:22;;;;;;;35.85;23.48;;;;;;;;;;5034235;28;20040;-75
2022/03/20 02:16:49;;;;;;;33.92;23.42;;;;;;;;;;5034237;28;20022;-75
2022/03/20 02:19:16;;;;;;;35.63;22.85;;;;;;;;;;5023492;28;20021;-75
2022/03/20 02:21:46;;;;;;;32.17;23.08;;;;;;;;;;5029482;28;20514;-75
2022/03/20 02:24:31;;;;;;;33.28;23.17;;;;;;;;;;5033283;28;20030;-75
2022/03/20 02:27:05;;;;;;;31.42;22.17;;;;;;;;;;5033393;28;20032;-75
2022/03/20 02:29:31;;;;;;;34.67;25.52;;;;;;;;;;5023140;28;20512;-76
2022/03/20 02:31:59;;;;;;;40.13;27.30;;;;;;;;;;5033574;28;20021;-77
2022/03/20 02:34:30;;;;;;;37.20;26.85;;;;;;;;;;5033756;28;20029;-75
2022/03/20 02:36:57;;;;;;;41.25;25.90;;;;;;;;;;5033592;28;20461;-75
2022/03/20 02:39:24;;;;;;;40.63;27.85;;;;;;;;;;5027987;28;20021;-74
2022/03/20 02:41:54;;;;;;;37.42;26.67;;;;;;;;;;5022441;28;20105;-75
2022/03/20 02:44:21;;;;;;;38.97;26.25;;;;;;;;;;5024706;28;20029;-75
2022/03/20 02:46:47;;;;;;;39.47;27.27;;;;;;;;;;5024302;28;20483;-75
2022/03/20 02:49:14;;;;;;;37.80;27.05;;;;;;;;;;5025160;28;20018;-75
2022/03/20 02:51:41;;;;;;;42.58;29.67;;;;;;;;;;5030387;28;20033;-75
2022/03/20 02:54:07;;;;;;;44.28;30.92;;;;;;;;;;5028463;28;20032;-75
2022/03/20 02:56:33;;;;;;;45.42;31.95;;;;;;;;;;5023917;28;20096;-75
2022/03/20 02:59:02;;;;;;;40.90;29.25;;;;;;;;;;5021453;28;20113;-75
2022/03/20 03:01:29;;;;;;;36.15;27.73;;;;;;;;;;5021795;28;20034;-76
2022/03/20 03:04:03;;;;;;;37.95;28.67;;;;;;;;;;5023914;28;20447;-76
2022/03/20 03:06:29;;;;;;;36.20;27.48;;;;;;;;;;5027268;28;20485;-75
2022/03/20 03:11:40;;;;;;;40.15;30.98;;;;;;;;;;5024396;28;20084;-75
2022/03/20 03:15:19;;;;;;;43.55;31.90;;;;;;;;;;5029465;28;20025;-76
2022/03/20 03:16:54;;;;;;;40.17;28.55;;;;;;;;;;5022916;28;20028;-76
2022/03/20 03:19:21;;;;;;;28.60;21.33;;;;;;;;;;5021263;28;20465;-76
2022/03/20 03:21:47;;;;;;;33.72;25.95;;;;;;;;;;5026473;28;20018;-76
2022/03/20 03:24:14;;;;;;;42.00;28.58;;;;;;;;;;5032451;28;20063;-76
2022/03/20 03:26:40;;;;;;;42.03;30.52;;;;;;;;;;5032267;28;20018;-76
2022/03/20 03:29:07;;;;;;;40.75;29.88;;;;;;;;;;5028923;28;20163;-76
2022/03/20 03:31:34;;;;;;;38.60;30.38;;;;;;;;;;5027198;28;20527;-74
2022/03/20 03:36:45;;;;;;;39.85;30.58;;;;;;;;;;5031073;28;20551;-76
2022/03/20 03:39:12;;;;;;;38.78;27.70;;;;;;;;;;5032888;28;20079;-76
2022/03/20 03:41:38;;;;;;;32.30;25.08;;;;;;;;;;5027169;28;20037;-76
2022/03/20 03:44:05;;;;;;;34.05;25.60;;;;;;;;;;5025459;28;20021;-76
2022/03/20 03:46:31;;;;;;;34.40;24.80;;;;;;;;;;5022316;28;20029;-75
2022/03/20 03:48:57;;;;;;;35.05;25.23;;;;;;;;;;5022044;28;20399;-76
2022/03/20 03:51:24;;;;;;;36.42;24.10;;;;;;;;;;5030263;28;20018;-75
2022/03/20 03:53:51;;;;;;;34.67;25.40;;;;;;;;;;5029625;28;20022;-75
2022/03/20 03:56:19;;;;;;;34.53;25.80;;;;;;;;;;5026569;28;20030;-75
2022/03/20 03:58:45;;;;;;;34.88;26.17;;;;;;;;;;5025526;28;20041;-75
2022/03/20 04:01:12;;;;;;;33.45;25.70;;;;;;;;;;5025592;28;20033;-75
2022/03/20 04:03:38;;;;;;;37.63;25.83;;;;;;;;;;5021623;28;20084;-75
2022/03/20 04:06:04;;;;;;;35.50;27.23;;;;;;;;;;5026995;28;20460;-75
2022/03/20 04:08:32;;;;;;;34.83;26.63;;;;;;;;;;5016710;28;20080;-74
2022/03/20 04:10:58;;;;;;;39.33;27.15;;;;;;;;;;5030585;28;20031;-75
2022/03/20 04:13:25;;;;;;;35.53;25.00;;;;;;;;;;5031658;28;20018;-76
2022/03/20 04:15:52;;;;;;;31.00;22.92;;;;;;;;;;5032657;28;20021;-76
2022/03/20 04:18:18;;;;;;;30.00;21.20;;;;;;;;;;5032624;28;20029;-75
2022/03/20 04:20:45;;;;;;;30.42;22.40;;;;;;;;;;5032598;28;20091;-76
2022/03/20 04:25:56;;;;;;;35.03;27.85;;;;;;;;;;5031701;28;20031;-75
2022/03/20 04:28:22;;;;;;;33.58;24.83;;;;;;;;;;5032427;28;20504;-75
2022/03/20 04:30:49;;;;;;;30.70;22.73;;;;;;;;;;5030180;28;20059;-76
2022/03/20 04:33:15;;;;;;;28.77;21.15;;;;;;;;;;5029768;28;20025;-75
2022/03/20 04:35:41;;;;;;;29.42;22.27;;;;;;;;;;5034405;28;20028;-75
2022/03/20 04:38:08;;;;;;;33.05;24.88;;;;;;;;;;5034691;28;20129;-75
2022/03/20 04:40:34;;;;;;;36.05;26.50;;;;;;;;;;5036098;28;20459;-75
2022/03/20 04:43:00;;;;;;;33.05;23.92;;;;;;;;;;5035722;28;20026;-75
2022/03/20 04:45:27;;;;;;;27.20;20.27;;;;;;;;;;5034072;28;20036;-76
2022/03/20 04:58:52;;;;;;;25.83;18.85;;;;;;;;;;5035736;28;20040;-75
2022/03/20 05:01:19;;;;;;;24.75;18.00;;;;;;;;;;5035822;28;20030;-75
2022/03/20 05:03:45;;;;;;;26.95;20.08;;;;;;;;;;5032884;28;20052;-76
2022/03/20 05:06:12;;;;;;;24.88;19.02;;;;;;;;;;5032387;28;20041;-76
2022/03/20 05:08:39;;;;;;;24.95;19.15;;;;;;;;;;5033337;28;20064;-75
2022/03/20 05:13:51;;;;;;;26.08;18.20;;;;;;;;;;5032797;28;20431;-76
2022/03/20 05:16:17;;;;;;;24.38;17.63;;;;;;;;;;5032066;28;20530;-76
2022/03/20 05:18:44;;;;;;;30.02;21.58;;;;;;;;;;5029873;28;20069;-76
2022/03/20 05:21:10;;;;;;;36.08;27.25;;;;;;;;;;5033956;28;20025;-76
2022/03/20 05:23:37;;;;;;;36.13;26.48;;;;;;;;;;5034021;28;20091;-76
2022/03/20 05:26:03;;;;;;;34.90;25.13;;;;;;;;;;5034618;28;20132;-75
2022/03/20 05:28:30;;;;;;;34.80;25.50;;;;;;;;;;5034735;28;20536;-75
2022/03/20 05:30:56;;;;;;;39.20;25.50;;;;;;;;;;5034578;28;20460;-75
2022/03/20 05:33:23;;;;;;;33.63;24.08;;;;;;;;;;5023333;28;20068;-76
2022/03/20 05:35:49;;;;;;;38.67;26.48;;;;;;;;;;5033763;28;20017;-76
2022/03/20 05:38:15;;;;;;;41.65;31.42;;;;;;;;;;5034832;28;20032;-76
2022/03/20 05:40:44;;;;;;;40.05;27.52;;;;;;;;;;5021752;28;20104;-75
2022/03/20 05:43:10;;;;;;;41.95;30.35;;;;;;;;;;5023780;28;20112;-75
2022/03/20 05:45:39;;;;;;;44.28;30.60;;;;;;;;;;5019889;28;20071;-75
2022/03/20 05:48:06;;;;;;;42.20;30.63;;;;;;;;;;5028517;28;20490;-76
2022/03/20 05:50:32;;;;;;;48.00;33.33;;;;;;;;;;5029029;28;20018;-75
2022/03/20 05:52:58;;;;;;;50.67;35.65;;;;;;;;;;5031854;28;20021;-75
2022/03/20 05:58:01;;;;;;;50.78;36.65;;;;;;;;;;5024415;28;20017;-75
2022/03/20 05:58:13;;;;;;;46.70;34.50;;;;;;;;;;5030733;28;20025;-76
2022/03/20 06:00:43;;;;;;;52.42;35.70;;;;;;;;;;5026236;28;20026;-75
2022/03/20 06:03:10;;;;;;;52.15;35.75;;;;;;;;;;5017207;28;20030;-75
2022/03/20 06:05:37;;;;;;;54.55;35.75;;;;;;;;;;4998243;28;20056;-76
2022/03/20 06:08:04;;;;;;;56.17;37.28;;;;;;;;;;5006019;28;20022;-75
2022/03/20 06:10:30;;;;;;;58.45;40.42;;;;;;;;;;5000233;28;20022;-75
2022/03/20 06:12:57;;;;;;;58.63;37.25;;;;;;;;;;5005383;28;20481;-76
2022/03/20 06:15:23;;;;;;;55.83;37.97;;;;;;;;;;5005746;28;20026;-76
2022/03/20 06:17:50;;;;;;;64.07;39.63;;;;;;;;;;5001275;28;20512;-76
2022/03/20 06:20:17;;;;;;;62.00;39.45;;;;;;;;;;4999840;28;20040;-75
2022/03/20 06:22:45;;;;;;;59.03;40.35;;;;;;;;;;5021741;23;20038;-76
2022/03/20 06:25:13;;;;;;;52.65;38.10;;;;;;;;;;5054287;28;20425;-76
2022/03/20 06:27:44;;;;;;;48.67;36.38;;;;;;;;;;5049104;28;20492;-77
2022/03/20 06:30:11;;;;;;;51.88;37.60;;;;;;;;;;5078006;28;20032;-75
2022/03/20 06:32:37;;;;;;;57.13;45.85;;;;;;;;;;5071034;28;20051;-76
2022/03/20 06:35:05;;;;;;;59.45;42.45;;;;;;;;;;5067057;28;20482;-75
2022/03/20 06:37:42;;;;;;;60.50;42.25;;;;;;;;;;5067571;28;20454;-76
2022/03/20 06:40:09;;;;;;;61.85;41.35;;;;;;;;;;5073678;28;20475;-76
2022/03/20 06:42:35;;;;;;;55.85;38.92;;;;;;;;;;5068341;28;20032;-76
2022/03/20 06:45:03;;;;;;;56.30;37.67;;;;;;;;;;5075543;28;20035;-76
2022/03/20 06:47:32;;;;;;;55.80;38.00;;;;;;;;;;5066150;28;20032;-76
2022/03/20 06:49:59;;;;;;;58.50;41.55;;;;;;;;;;5066783;28;20035;-76
2022/03/20 06:52:28;;;;;;;60.58;40.15;;;;;;;;;;5070681;28;20074;-76
2022/03/20 06:54:56;;;;;;;61.42;41.72;;;;;;;;;;5072326;28;20125;-74
2022/03/20 06:57:23;;;;;;;53.95;34.35;;;;;;;;;;5076113;28;20080;-76
2022/03/20 06:59:50;;;;;;;45.38;31.02;;;;;;;;;;5070356;28;20047;-77
2022/03/20 07:02:18;;;;;;;39.88;28.77;;;;;;;;;;5066769;28;20040;-76
2022/03/20 07:04:47;;;;;;;42.08;29.90;;;;;;;;;;5059567;28;20659;-77
2022/03/20 07:07:16;;;;;;;52.80;33.03;;;;;;;;;;5067635;28;20496;-75
2022/03/20 07:09:42;;;;;;;58.38;34.45;;;;;;;;;;5045811;28;20029;-75
2022/03/20 07:12:09;;;;;;;49.65;32.33;;;;;;;;;;5069995;28;20390;-76
2022/03/20 07:14:36;;;;;;;51.83;32.47;;;;;;;;;;5070439;28;20447;-76
2022/03/20 07:17:28;;;;;;;43.00;29.48;;;;;;;;;;5071792;28;20028;-76
2022/03/20 07:19:54;;;;;;;42.60;30.10;;;;;;;;;;5058126;28;20073;-75
2022/03/20 07:22:23;;;;;;;44.95;30.08;;;;;;;;;;5067381;28;20158;-75
2022/03/20 07:24:50;;;;;;;46.72;32.15;;;;;;;;;;5068510;28;20045;-76
2022/03/20 07:30:03;;;;;;;49.28;33.28;;;;;;;;;;5068596;28;20490;-75
2022/03/20 07:32:29;;;;;;;55.30;35.60;;;;;;;;;;5069570;28;20091;-79
2022/03/20 07:34:55;;;;;;;46.17;32.20;;;;;;;;;;5066213;28;20028;-75
2022/03/20 07:37:22;;;;;;;43.33;29.55;;;;;;;;;;5068704;28;20035;-76
2022/03/20 07:39:49;;;;;;;37.97;26.95;;;;;;;;;;5067537;28;20130;-76
2022/03/20 07:42:16;;;;;;;44.20;30.25;;;;;;;;;;5068699;28;20032;-76
2022/03/20 07:44:43;;;;;;;42.85;29.98;;;;;;;;;;5069066;28;20119;-76
2022/03/20 07:47:17;;;;;;;39.78;28.70;;;;;;;;;;5064578;28;20399;-76
2022/03/20 07:49:44;;;;;;;40.20;27.23;;;;;;;;;;5066909;28;20032;-75
2022/03/20 07:52:10;;;;;;;41.22;32.35;;;;;;;;;;5067238;28;20183;-76
2022/03/20 07:54:37;;;;;;;47.28;30.98;;;;;;;;;;5068977;28;20032;-77
2022/03/20 07:57:04;;;;;;;41.83;27.85;;;;;;;;;;5067877;28;20028;-75
2022/03/20 07:59:30;;;;;;;39.00;29.20;;;;;;;;;;5061601;28;20534;-76
2022/03/20 08:01:56;;;;;;;39.83;27.17;;;;;;;;;;5061265;28;20032;-75
2022/03/20 08:04:24;;;;;;;51.03;28.33;;;;;;;;;;5069569;28;20059;-75
2022/03/20 08:06:50;;;;;;;45.55;32.88;;;;;;;;;;5070422;28;20442;-75
2022/03/20 08:09:17;;;;;;;43.22;29.27;;;;;;;;;;5070456;28;20047;-76
2022/03/20 08:11:43;;;;;;;43.85;29.90;;;;;;;;;;5072810;28;20382;-76
2022/03/20 08:14:10;;;;;;;39.65;28.02;;;;;;;;;;5071621;28;20382;-76
2022/03/20 08:16:38;;;;;;;52.65;30.92;;;;;;;;;;5066365;28;20541;-76
2022/03/20 08:19:05;;;;;;;73.07;34.85;;;;;;;;;;5070029;28;20021;-75
2022/03/20 08:21:35;;;;;;;53.03;30.45;;;;;;;;;;5069585;28;20043;-75
2022/03/20 08:24:05;;;;;;;47.92;31.52;;;;;;;;;;5069023;28;20044;-76
2022/03/20 08:26:32;;;;;;;41.38;30.35;;;;;;;;;;5068431;28;20023;-76
2022/03/20 08:29:01;;;;;;;41.72;29.63;;;;;;;;;;5065506;28;20040;-75
2022/03/20 08:31:28;;;;;;;56.13;34.38;;;;;;;;;;5074007;28;20107;-75
2022/03/20 08:33:57;;;;;;;67.47;34.53;;;;;;;;;;5072177;28;20379;-77
2022/03/20 08:36:24;;;;;;;83.45;38.78;;;;;;;;;;5065080;28;20371;-75
2022/03/20 08:38:51;;;;;;;65.63;35.70;;;;;;;;;;5066352;28;20024;-75
2022/03/20 08:41:17;;;;;;;52.92;33.05;;;;;;;;;;5066218;28;20063;-75
2022/03/20 08:43:44;;;;;;;43.78;30.17;;;;;;;;;;5073315;28;20029;-75
2022/03/20 08:46:10;;;;;;;43.53;30.55;;;;;;;;;;5071562;28;20445;-75
2022/03/20 08:48:37;;;;;;;38.17;28.25;;;;;;;;;;5067501;28;20024;-75
2022/03/20 08:51:03;;;;;;;46.33;31.13;;;;;;;;;;5070303;28;21332;-75
2022/03/20 08:53:29;;;;;;;37.95;27.77;;;;;;;;;;5069290;28;20029;-76
2022/03/20 08:55:56;;;;;;;39.22;28.85;;;;;;;;;;5071226;28;20017;-76
2022/03/20 08:58:22;;;;;;;39.88;26.73;;;;;;;;;;5072218;28;20123;-77
2022/03/20 09:00:48;;;;;;;42.00;27.23;;;;;;;;;;5071209;28;20031;-76
2022/03/20 09:03:15;;;;;;;43.17;29.98;;;;;;;;;;5071003;28;20055;-76
2022/03/20 09:05:41;;;;;;;41.08;28.15;;;;;;;;;;5071139;28;20410;-76
2022/03/20 09:08:07;;;;;;;49.58;29.83;;;;;;;;;;5071592;28;20039;-76
2022/03/20 09:10:34;;;;;;;47.25;31.15;;;;;;;;;;5074540;28;20092;-76
2022/03/20 09:13:00;;;;;;;49.08;30.13;;;;;;;;;;5057974;28;20017;-75
2022/03/20 09:15:28;;;;;;;46.78;28.67;;;;;;;;;;5072953;28;20225;-77
2022/03/20 09:20:40;;;;;;;41.40;29.83;;;;;;;;;;5071720;28;20135;-76
2022/03/20 09:23:08;;;;;;;41.80;31.48;;;;;;;;;;5074420;28;20044;-75
2022/03/20 09:25:34;;;;;;;47.85;32.17;;;;;;;;;;5073011;28;20494;-75
2022/03/20 09:28:01;;;;;;;44.35;31.15;;;;;;;;;;5072914;28;20107;-76
2022/03/20 09:30:28;;;;;;;40.53;29.25;;;;;;;;;;5072447;28;20115;-76
2022/03/20 09:32:54;;;;;;;53.90;32.72;;;;;;;;;;5073707;28;20470;-75
2022/03/20 09:35:20;;;;;;;68.40;33.78;;;;;;;;;;5073403;28;20017;-76
2022/03/20 09:37:47;;;;;;;55.28;31.65;;;;;;;;;;5062713;28;20038;-76
2022/03/20 09:40:13;;;;;;;75.15;33.28;;;;;;;;;;5074630;28;20172;-76
2022/03/20 09:42:41;;;;;;;55.95;31.63;;;;;;;;;;5073582;28;20040;-76
2022/03/20 09:45:11;;;;;;;59.13;31.60;;;;;;;;;;5074445;28;20036;-75
2022/03/20 09:47:39;;;;;;;53.42;34.35;;;;;;;;;;5080477;28;20060;-75
2022/03/20 09:50:06;;;;;;;51.13;34.58;;;;;;;;;;5073658;28;20016;-76
2022/03/20 09:52:33;;;;;;;51.88;32.10;;;;;;;;;;5072649;28;20025;-75
2022/03/20 09:54:59;;;;;;;61.50;30.70;;;;;;;;;;5073084;28;20525;-76
2022/03/20 09:57:29;;;;;;;66.20;33.15;;;;;;;;;;5077599;28;20025;-76
2022/03/20 09:59:57;;;;;;;57.03;29.73;;;;;;;;;;5078991;28;20401;-75
2022/03/20 10:02:27;;;;;;;58.40;31.48;;;;;;;;;;5074070;28;20035;-76
2022/03/20 10:05:00;;;;;;;48.78;28.95;;;;;;;;;;5081216;28;20028;-76
2022/03/20 10:07:28;;;;;;;51.55;28.95;;;;;;;;;;5072053;28;20035;-76
2022/03/20 10:10:07;;;;;;;49.90;30.67;;;;;;;;;;5072297;28;20070;-75
2022/03/20 10:12:34;;;;;;;48.83;28.80;;;;;;;;;;5072524;28;20029;-76
2022/03/20 10:15:01;;;;;;;53.33;28.83;;;;;;;;;;5072501;28;20020;-76
2022/03/20 10:17:27;;;;;;;53.75;28.85;;;;;;;;;;5072117;28;20029;-76
2022/03/20 10:19:53;;;;;;;44.35;27.83;;;;;;;;;;5054391;28;20495;-75
2022/03/20 10:22:20;;;;;;;43.92;27.10;;;;;;;;;;5076670;28;20032;-75
2022/03/20 10:24:50;;;;;;;45.10;27.35;;;;;;;;;;5072763;28;20415;-76
2022/03/20 10:27:16;;;;;;;47.45;29.75;;;;;;;;;;5074142;28;20024;-77
2022/03/20 10:29:57;;;;;;;52.60;31.40;;;;;;;;;;5070245;28;20020;-76
2022/03/20 10:32:24;;;;;;;53.13;29.88;;;;;;;;;;5070740;28;20371;-75
2022/03/20 10:34:51;;;;;;;64.47;33.38;;;;;;;;;;5053855;28;20479;-75
2022/03/20 10:37:21;;;;;;;54.58;31.42;;;;;;;;;;5054282;28;20037;-76
2022/03/20 10:39:48;;;;;;;55.60;30.80;;;;;;;;;;5070330;28;20370;-77
2022/03/20 10:42:15;;;;;;;69.20;34.78;;;;;;;;;;5072478;28;20494;-77
2022/03/20 10:44:42;;;;;;;68.00;38.25;;;;;;;;;;5069652;28;20012;-76
2022/03/20 10:47:12;;;;;;;63.63;34.60;;;;;;;;;;5071904;28;20031;-75
2022/03/20 10:49:39;;;;;;;68.00;38.72;;;;;;;;;;5070530;28;20052;-75
2022/03/20 10:52:07;;;;;;;66.65;41.75;;;;;;;;;;5073045;28;20016;-75
2022/03/20 10:54:40;;;;;;;63.55;41.33;;;;;;;;;;5077013;28;20020;-77
2022/03/20 10:57:08;;;;;;;72.88;46.53;;;;;;;;;;5081611;28;20024;-77
2022/03/20 10:59:34;;;;;;;64.55;45.03;;;;;;;;;;5078439;28;20020;-76
2022/03/20 11:02:02;;;;;;;75.88;45.55;;;;;;;;;;5072559;28;20099;-76
2022/03/20 11:04:28;;;;;;;72.18;46.15;;;;;;;;;;5072702;28;20483;-76
2022/03/20 11:06:57;;;;;;;75.15;46.03;;;;;;;;;;5071147;28;20020;-76
2022/03/20 11:09:23;;;;;;;70.03;44.63;;;;;;;;;;5071735;28;20039;-76
2022/03/20 11:11:51;;;;;;;73.90;44.30;;;;;;;;;;5073442;28;20474;-76
2022/03/20 11:14:27;;;;;;;69.65;45.67;;;;;;;;;;5071550;28;20107;-76
2022/03/20 11:16:56;;;;;;;68.10;43.75;;;;;;;;;;5072870;28;20024;-75
2022/03/20 11:19:25;;;;;;;68.28;46.30;;;;;;;;;;5077381;28;20056;-75
2022/03/20 11:21:54;;;;;;;78.78;46.65;;;;;;;;;;5075424;28;20020;-76
2022/03/20 11:24:20;;;;;;;70.50;45.42;;;;;;;;;;5056971;28;20169;-75
2022/03/20 11:26:49;;;;;;;70.60;48.85;;;;;;;;;;5075758;28;20028;-75
2022/03/20 11:29:16;;;;;;;70.13;47.40;;;;;;;;;;5071080;28;20020;-75
2022/03/20 11:31:43;;;;;;;72.70;45.63;;;;;;;;;;5067942;28;20027;-76
2022/03/20 11:34:10;;;;;;;66.28;45.95;;;;;;;;;;5074038;28;20020;-77
2022/03/20 11:36:55;;;;;;;63.65;46.55;;;;;;;;;;5073966;28;20344;-76
2022/03/20 11:39:21;;;;;;;66.72;42.63;;;;;;;;;;5068375;28;20074;-77
2022/03/20 11:42:04;;;;;;;68.05;44.08;;;;;;;;;;5066783;28;20044;-77
2022/03/20 11:44:30;;;;;;;65.82;45.00;;;;;;;;;;5070676;28;20482;-76
2022/03/20 11:47:20;;;;;;;63.50;42.53;;;;;;;;;;5075757;28;20105;-76
2022/03/20 11:50:06;;;;;;;59.38;41.00;;;;;;;;;;5059406;28;20407;-77
2022/03/20 11:52:53;;;;;;;68.00;44.85;;;;;;;;;;5072518;28;20111;-76
2022/03/20 11:55:26;;;;;;;57.15;42.55;;;;;;;;;;5072224;28;20031;-76
2022/03/20 11:57:53;;;;;;;59.50;42.47;;;;;;;;;;5052850;28;21545;-77
2022/03/20 12:00:23;;;;;;;60.92;41.92;;;;;;;;;;5070206;28;20600;-76
2022/03/20 12:02:49;;;;;;;61.40;44.13;;;;;;;;;;5072600;28;20115;-76
2022/03/20 12:05:15;;;;;;;60.03;43.83;;;;;;;;;;5070093;28;20043;-76
2022/03/20 12:07:49;;;;;;;58.67;41.28;;;;;;;;;;5072163;28;20032;-76
2022/03/20 12:10:15;;;;;;;65.72;45.50;;;;;;;;;;5070909;28;20032;-77
2022/03/20 12:12:54;;;;;;;59.03;43.42;;;;;;;;;;5068106;28;20036;-78
2022/03/20 12:15:25;;;;;;;58.53;42.80;;;;;;;;;;5068459;28;20074;-77
2022/03/20 12:18:12;;;;;;;59.53;41.60;;;;;;;;;;5068676;28;20032;-76
2022/03/20 12:20:59;;;;;;;55.67;39.85;;;;;;;;;;5070679;28;20036;-76
2022/03/20 12:23:43;;;;;;;52.50;38.97;;;;;;;;;;5068371;28;20147;-77
2022/03/20 12:26:26;;;;;;;50.80;37.72;;;;;;;;;;5072695;28;20059;-75
2022/03/20 12:28:53;;;;;;;47.08;36.72;;;;;;;;;;5070880;28;20079;-76
2022/03/20 12:31:27;;;;;;;37.92;28.83;;;;;;;;;;5067957;28;20029;-76
2022/03/20 12:34:12;;;;;;;33.53;27.00;;;;;;;;;;5051620;28;20032;-76
2022/03/20 12:36:38;;;;;;;37.63;27.48;;;;;;;;;;5065654;28;20032;-76
2022/03/20 12:39:04;;;;;;;32.83;27.00;;;;;;;;;;5065775;28;20064;-76
2022/03/20 12:41:31;;;;;;;36.95;27.42;;;;;;;;;;5076076;28;20035;-76
2022/03/20 12:43:58;;;;;;;36.42;26.83;;;;;;;;;;5074067;28;20029;-76
2022/03/20 12:46:25;;;;;;;33.60;26.67;;;;;;;;;;5075364;28;20063;-76
2022/03/20 12:48:52;;;;;;;36.13;26.88;;;;;;;;;;5075475;28;20032;-77
2022/03/20 12:51:24;;;;;;;37.05;27.80;;;;;;;;;;5070605;28;20043;-78
2022/03/20 12:53:52;;;;;;;35.13;26.50;;;;;;;;;;5069675;28;20052;-79
2022/03/20 12:58:48;;;;;;;37.55;27.00;;;;;;;;;;5065632;28;20061;-76
2022/03/20 13:01:14;;;;;;;38.28;29.98;;;;;;;;;;5066814;28;20036;-76
2022/03/20 13:03:42;;;;;;;34.55;27.15;;;;;;;;;;5070121;28;20035;-76
2022/03/20 13:06:08;;;;;;;35.35;27.08;;;;;;;;;;5069862;28;20064;-75
2022/03/20 13:08:36;;;;;;;32.53;26.75;;;;;;;;;;5066347;28;20364;-76
2022/03/20 13:14:03;;;;;;;27.38;21.80;;;;;;;;;;5063081;28;20043;-76
2022/03/20 13:16:32;;;;;;;29.58;21.45;;;;;;;;;;5069172;28;20036;-76
2022/03/20 13:18:58;;;;;;;30.23;22.50;;;;;;;;;;5066450;28;20051;-76
2022/03/20 13:21:25;;;;;;;28.50;22.30;;;;;;;;;;5063546;28;20033;-76
2022/03/20 13:23:52;;;;;;;28.88;19.23;;;;;;;;;;5069638;28;20466;-75
2022/03/20 13:26:19;;;;;;;28.95;21.45;;;;;;;;;;5069565;28;20059;-76
2022/03/20 13:28:46;;;;;;;25.08;18.30;;;;;;;;;;5055170;28;20024;-76
2022/03/20 13:31:14;;;;;;;24.50;18.40;;;;;;;;;;5070259;28;20059;-76
2022/03/20 13:33:51;;;;;;;27.52;20.52;;;;;;;;;;5071218;28;20443;-75
2022/03/20 13:36:18;;;;;;;26.17;21.40;;;;;;;;;;5071309;28;20541;-75
2022/03/20 13:38:45;;;;;;;27.92;19.92;;;;;;;;;;5054994;28;20032;-76
2022/03/20 13:41:19;;;;;;;28.52;18.20;;;;;;;;;;5070613;28;20060;-76
2022/03/20 13:43:46;;;;;;;27.90;19.75;;;;;;;;;;5063325;28;20418;-76
2022/03/20 13:46:17;;;;;;;27.35;19.33;;;;;;;;;;5070863;28;20088;-78
2022/03/20 13:48:44;;;;;;;27.30;18.83;;;;;;;;;;5071024;28;20040;-76
2022/03/20 13:51:11;;;;;;;25.83;17.95;;;;;;;;;;5073708;28;20028;-77
2022/03/20 13:53:38;;;;;;;27.08;19.98;;;;;;;;;;5072084;28;20060;-77
2022/03/20 13:56:19;;;;;;;22.75;17.30;;;;;;;;;;5070662;28;20351;-76
2022/03/20 13:59:03;;;;;;;25.83;16.55;;;;;;;;;;5071277;28;20115;-76
2022/03/20 14:01:29;;;;;;;20.88;15.27;;;;;;;;;;5052104;28;20062;-77
2022/03/20 14:03:55;;;;;;;22.33;15.10;;;;;;;;;;5070689;28;20041;-76
2022/03/20 14:06:25;;;;;;;26.88;14.95;;;;;;;;;;5070789;28;20424;-76
2022/03/20 14:08:52;;;;;;;25.17;15.73;;;;;;;;;;5068334;28;20025;-77
2022/03/20 14:11:31;;;;;;;24.40;14.85;;;;;;;;;;5074998;28;20077;-76
2022/03/20 14:13:58;;;;;;;23.05;15.40;;;;;;;;;;5071718;28;20475;-76
2022/03/20 14:16:24;;;;;;;22.48;15.07;;;;;;;;;;5071764;28;20025;-76
2022/03/20 14:18:51;;;;;;;23.52;15.30;;;;;;;;;;5091313;28;20477;-77
2022/03/20 14:21:19;;;;;;;26.23;16.05;;;;;;;;;;5092879;28;20669;-76
2022/03/20 14:24:03;;;;;;;22.35;15.07;;;;;;;;;;5093246;28;20047;-76
2022/03/20 14:26:52;;;;;;;23.13;13.82;;;;;;;;;;5079230;28;20032;-76
2022/03/20 14:40:53;;;;;;;22.20;14.35;;;;;;;;;;5080860;28;20070;-76
2022/03/20 14:43:29;;;;;;;23.50;13.82;;;;;;;;;;5082903;28;20024;-75
2022/03/20 14:45:56;;;;;;;24.25;15.73;;;;;;;;;;5077152;28;20487;-75
2022/03/20 14:48:23;;;;;;;24.55;15.63;;;;;;;;;;5073573;28;20074;-75
2022/03/20 14:50:50;;;;;;;21.30;14.23;;;;;;;;;;5072162;28;20016;-76
2022/03/20 14:53:29;;;;;;;23.02;13.95;;;;;;;;;;5055608;28;20033;-76
2022/03/20 14:55:55;;;;;;;21.17;14.23;;;;;;;;;;5073952;28;20591;-75
2022/03/20 14:58:23;;;;;;;20.80;13.27;;;;;;;;;;5071972;28;20027;-75
2022/03/20 15:00:54;;;;;;;21.95;13.48;;;;;;;;;;5073410;28;20047;-77
2022/03/20 15:03:21;;;;;;;19.52;12.30;;;;;;;;;;5071026;28;20549;-76
2022/03/20 15:05:47;;;;;;;23.38;13.10;;;;;;;;;;5071883;28;20499;-76
2022/03/20 15:13:44;;;;;;;25.67;17.58;;;;;;;;;;5077188;28;20031;-77